createdAt,value
2024-02-09T00:02:13.870Z,7.82
2024-02-09T00:04:42.243Z,7.85
2024-02-09T00:07:11.025Z,7.78
2024-02-09T00:09:39.434Z,7.47
2024-02-09T00:12:10.287Z,7.65
2024-02-09T00:14:44.232Z,7.50
2024-02-09T00:17:12.895Z,7.82
2024-02-09T00:19:41.614Z,7.10
2024-02-09T00:22:13.532Z,7.50
2024-02-09T00:24:43.606Z,7.65
2024-02-09T00:27:12.648Z,7.32
2024-02-09T00:29:43.777Z,7.40
2024-02-09T00:32:15.505Z,7.50
2024-02-09T00:34:47.758Z,8.75
2024-02-09T00:37:18.040Z,8.82
2024-02-09T00:39:47.267Z,8.63
2024-02-09T00:42:18.631Z,8.25
2024-02-09T00:44:49.706Z,8.38
2024-02-09T00:47:19.421Z,8.07
2024-02-09T00:49:48.618Z,8.07
2024-02-09T00:52:17.247Z,8.48
2024-02-09T00:54:47.019Z,8.05
2024-02-09T00:57:16.417Z,8.38
2024-02-09T00:59:45.233Z,7.60
2024-02-09T01:02:16.113Z,7.90
2024-02-09T01:04:45.096Z,7.30
2024-02-09T01:07:15.007Z,7.38
2024-02-09T01:09:43.430Z,7.53
2024-02-09T01:12:26.082Z,7.50
2024-02-09T01:15:12.244Z,7.22
2024-02-09T01:18:01.196Z,6.95
2024-02-09T01:20:47.441Z,7.00
2024-02-09T01:23:33.318Z,7.32
2024-02-09T01:26:19.119Z,6.90
2024-02-09T01:29:04.935Z,6.82
2024-02-09T01:31:51.113Z,6.60
2024-02-09T01:34:39.040Z,6.75
2024-02-09T01:37:26.023Z,6.68
2024-02-09T01:40:12.366Z,6.70
2024-02-09T01:42:58.090Z,6.93
2024-02-09T01:45:43.782Z,6.80
2024-02-09T01:48:30.866Z,6.57
2024-02-09T01:51:20.017Z,6.43
2024-02-09T01:54:07.378Z,6.80
2024-02-09T01:56:55.180Z,6.55
2024-02-09T01:59:41.422Z,6.65
2024-02-09T02:02:28.735Z,6.47
2024-02-09T02:05:14.730Z,6.60
2024-02-09T02:08:02.502Z,6.82
2024-02-09T02:10:48.761Z,6.78
2024-02-09T02:13:35.358Z,6.82
2024-02-09T02:16:21.536Z,6.88
2024-02-09T02:19:07.776Z,7.00
2024-02-09T02:21:57.363Z,7.03
2024-02-09T02:24:48.007Z,6.80
2024-02-09T02:27:33.925Z,6.82
2024-02-09T02:30:19.920Z,7.00
2024-02-09T02:33:05.988Z,7.18
2024-02-09T02:35:52.110Z,6.53
2024-02-09T02:38:38.157Z,7.90
2024-02-09T02:41:17.994Z,6.70
2024-02-09T02:43:45.262Z,6.80
2024-02-09T02:46:16.966Z,7.20
2024-02-09T02:49:03.690Z,7.10
2024-02-09T02:51:49.683Z,7.15
2024-02-09T02:54:36.218Z,7.07
2024-02-09T02:57:26.128Z,7.68
2024-02-09T03:00:13.382Z,7.10
2024-02-09T03:03:00.489Z,7.40
2024-02-09T03:05:31.221Z,7.68
2024-02-09T03:10:31.656Z,8.13
2024-02-09T03:13:01.471Z,7.95
2024-02-09T03:15:30.209Z,7.60
2024-02-09T03:17:58.486Z,7.47
2024-02-09T03:20:27.919Z,7.32
2024-02-09T03:22:56.737Z,7.80
2024-02-09T03:25:24.966Z,7.68
2024-02-09T03:27:53.881Z,7.60
2024-02-09T03:30:25.962Z,7.85
2024-02-09T03:32:55.582Z,7.63
2024-02-09T03:35:26.851Z,7.38
2024-02-09T03:37:56.958Z,7.32
2024-02-09T03:40:25.523Z,7.20
2024-02-09T03:42:54.274Z,7.38
2024-02-09T03:45:24.441Z,7.80
2024-02-09T03:47:53.515Z,7.40
2024-02-09T03:50:22.304Z,7.50
2024-02-09T03:52:52.265Z,7.85
2024-02-09T03:55:22.314Z,7.93
2024-02-09T03:57:51.404Z,7.88
2024-02-09T04:00:20.079Z,8.55
2024-02-09T04:02:52.704Z,7.68
2024-02-09T04:05:26.602Z,8.52
2024-02-09T04:07:56.487Z,8.40
2024-02-09T04:13:04.190Z,8.45
2024-02-09T04:15:33.259Z,8.68
2024-02-09T04:18:07.812Z,8.55
2024-02-09T04:20:40.559Z,8.50
2024-02-09T04:23:12.001Z,8.90
2024-02-09T04:28:18.723Z,7.75
2024-02-09T04:30:49.799Z,8.73
2024-02-09T04:33:20.747Z,8.60
2024-02-09T04:35:49.935Z,8.60
2024-02-09T04:38:19.965Z,9.10
2024-02-09T04:40:49.557Z,8.63
2024-02-09T04:43:18.424Z,8.73
2024-02-09T04:45:48.452Z,8.90
2024-02-09T04:48:21.147Z,9.13
2024-02-09T04:50:50.945Z,9.32
2024-02-09T04:53:20.795Z,9.40
2024-02-09T04:55:51.926Z,9.73
2024-02-09T04:58:22.209Z,9.40
2024-02-09T05:00:52.507Z,9.80
2024-02-09T05:03:23.663Z,10.32
2024-02-09T05:05:53.821Z,10.60
2024-02-09T05:08:25.042Z,10.23
2024-02-09T05:10:55.115Z,9.95
2024-02-09T05:13:28.597Z,9.65
2024-02-09T05:16:01.409Z,9.73
2024-02-09T05:18:34.328Z,10.00
2024-02-09T05:21:06.609Z,9.77
2024-02-09T05:26:08.378Z,10.10
2024-02-09T05:28:41.206Z,10.38
2024-02-09T05:31:18.003Z,10.65
2024-02-09T05:33:51.988Z,10.82
2024-02-09T05:36:22.707Z,11.70
2024-02-09T05:38:52.085Z,11.60
2024-02-09T05:41:22.476Z,11.73
2024-02-09T05:43:53.406Z,11.18
2024-02-09T05:46:23.518Z,11.50
2024-02-09T05:48:57.697Z,10.82
2024-02-09T05:51:26.504Z,11.90
2024-02-09T05:53:55.836Z,11.07
2024-02-09T05:56:27.262Z,11.60
2024-02-09T05:58:57.845Z,11.63
2024-02-09T06:01:32.135Z,11.63
2024-02-09T06:04:02.755Z,12.43
2024-02-09T06:06:31.509Z,12.90
2024-02-09T06:09:03.150Z,12.48
2024-02-09T06:11:32.067Z,12.80
2024-02-09T06:14:02.149Z,12.05
2024-02-09T06:16:30.876Z,11.13
2024-02-09T06:18:59.869Z,11.52
2024-02-09T06:21:33.501Z,10.90
2024-02-09T06:24:01.933Z,10.73
2024-02-09T06:26:30.259Z,10.70
2024-02-09T06:29:00.510Z,10.05
2024-02-09T06:31:29.013Z,10.10
2024-02-09T06:34:01.540Z,9.20
2024-02-09T06:36:33.991Z,9.55
2024-02-09T06:39:02.728Z,9.60
2024-02-09T06:41:31.275Z,8.88
2024-02-09T06:44:00.936Z,9.45
2024-02-09T06:46:29.547Z,9.45
2024-02-09T06:48:59.101Z,9.75
2024-02-09T06:51:27.804Z,9.02
2024-02-09T06:53:59.272Z,8.85
2024-02-09T06:56:27.851Z,9.63
2024-02-09T06:58:59.526Z,9.50
2024-02-09T07:01:30.990Z,9.45
2024-02-09T07:03:59.910Z,9.40
2024-02-09T07:06:30.165Z,9.05
2024-02-09T07:09:01.316Z,8.90
2024-02-09T07:11:30.411Z,9.25
2024-02-09T07:13:59.244Z,9.10
2024-02-09T07:16:27.959Z,9.23
2024-02-09T07:18:56.802Z,9.63
2024-02-09T07:21:25.423Z,9.48
2024-02-09T07:23:54.142Z,9.15
2024-02-09T07:26:26.322Z,8.88
2024-02-09T07:28:55.831Z,8.95
2024-02-09T07:31:24.088Z,8.90
2024-02-09T07:33:53.090Z,8.70
2024-02-09T07:36:22.983Z,9.13
2024-02-09T07:38:52.365Z,8.77
2024-02-09T07:41:24.705Z,8.52
2024-02-09T07:43:52.917Z,8.82
2024-02-09T07:46:22.334Z,9.40
2024-02-09T07:48:51.714Z,9.10
2024-02-09T07:51:22.304Z,8.45
2024-02-09T07:53:54.329Z,8.45
2024-02-09T07:56:24.725Z,8.20
2024-02-09T07:58:53.271Z,8.27
2024-02-09T08:01:23.913Z,8.60
2024-02-09T08:03:55.053Z,8.57
2024-02-09T08:06:24.354Z,10.13
2024-02-09T08:08:54.099Z,9.68
2024-02-09T08:11:25.130Z,8.73
2024-02-09T08:13:54.035Z,9.00
2024-02-09T08:16:23.857Z,8.75
2024-02-09T08:18:53.143Z,8.55
2024-02-09T08:21:23.468Z,8.98
2024-02-09T08:23:52.204Z,9.25
2024-02-09T08:26:21.464Z,8.70
2024-02-09T08:28:51.352Z,9.10
2024-02-09T08:31:20.075Z,8.65
2024-02-09T08:33:50.561Z,8.77
2024-02-09T08:36:22.881Z,8.15
2024-02-09T08:38:52.116Z,8.07
2024-02-09T08:41:20.850Z,7.75
2024-02-09T08:43:50.830Z,8.15
2024-02-09T08:46:19.580Z,7.55
2024-02-09T08:48:48.952Z,7.45
2024-02-09T08:51:17.529Z,7.18
2024-02-09T08:53:48.653Z,7.35
2024-02-09T08:58:48.642Z,7.60
2024-02-09T09:01:19.875Z,6.82
2024-02-09T09:03:48.894Z,7.30
2024-02-09T09:06:17.332Z,6.50
2024-02-09T09:08:47.638Z,6.20
2024-02-09T09:11:18.455Z,6.82
2024-02-09T09:13:48.596Z,6.70
2024-02-09T09:16:18.939Z,6.25
2024-02-09T09:18:51.784Z,6.78
2024-02-09T09:21:22.203Z,6.97
2024-02-09T09:23:52.604Z,6.80
2024-02-09T09:26:28.616Z,6.68
2024-02-09T09:28:58.695Z,6.28
2024-02-09T09:31:31.130Z,6.70
2024-02-09T09:34:00.433Z,6.40
2024-02-09T09:36:32.532Z,6.13
2024-02-09T09:39:06.887Z,6.15
2024-02-09T09:41:42.037Z,7.28
2024-02-09T09:44:13.670Z,6.65
2024-02-09T09:46:44.189Z,6.38
2024-02-09T09:49:14.557Z,6.35
2024-02-09T09:51:49.450Z,6.95
2024-02-09T09:54:23.743Z,7.10
2024-02-09T09:56:57.410Z,7.03
2024-02-09T09:59:27.439Z,6.80
2024-02-09T10:01:59.843Z,6.70
2024-02-09T10:04:30.179Z,7.03
2024-02-09T10:06:58.933Z,6.60
2024-02-09T10:09:27.190Z,6.72
2024-02-09T10:11:56.905Z,6.53
2024-02-09T10:14:25.369Z,6.72
2024-02-09T10:16:54.922Z,6.70
2024-02-09T10:19:25.808Z,6.50
2024-02-09T10:21:58.413Z,6.53
2024-02-09T10:24:28.765Z,6.13
2024-02-09T10:26:58.105Z,6.72
2024-02-09T10:29:28.202Z,6.65
2024-02-09T10:31:58.516Z,6.53
2024-02-09T10:34:30.314Z,7.15
2024-02-09T10:36:58.941Z,6.90
2024-02-09T10:39:30.409Z,7.10
2024-02-09T10:42:03.993Z,7.20
2024-02-09T10:44:34.882Z,7.20
2024-02-09T10:47:07.289Z,7.17
2024-02-09T10:49:42.321Z,7.47
2024-02-09T10:52:15.198Z,7.22
2024-02-09T10:54:50.514Z,7.43
2024-02-09T10:57:21.719Z,6.70
2024-02-09T10:59:51.918Z,6.78
2024-02-09T11:02:23.315Z,6.85
2024-02-09T11:04:55.819Z,6.82
2024-02-09T11:07:27.873Z,6.90
2024-02-09T11:12:26.495Z,6.88
2024-02-09T11:14:56.169Z,7.25
2024-02-09T11:17:30.634Z,7.50
2024-02-09T11:20:00.737Z,6.78
2024-02-09T11:22:31.806Z,6.45
2024-02-09T11:25:02.576Z,6.97
2024-02-09T11:27:32.472Z,6.97
2024-02-09T11:30:00.689Z,8.85
2024-02-09T11:32:30.801Z,7.28
2024-02-09T11:35:02.218Z,7.50
2024-02-09T11:37:30.710Z,8.38
2024-02-09T11:40:00.543Z,10.00
2024-02-09T11:42:35.300Z,7.80
2024-02-09T11:45:04.420Z,6.60
2024-02-09T11:47:34.304Z,5.43
2024-02-09T11:50:06.690Z,5.07
2024-02-09T11:52:37.106Z,5.03
2024-02-09T11:55:06.967Z,4.50
2024-02-09T11:57:39.531Z,5.03
2024-02-09T12:00:09.892Z,4.70
2024-02-09T12:02:38.372Z,4.50
2024-02-09T12:05:10.531Z,4.80
2024-02-09T12:07:39.134Z,4.82
2024-02-09T12:10:09.805Z,4.75
2024-02-09T12:12:38.035Z,5.18
2024-02-09T12:15:07.499Z,4.65
2024-02-09T12:17:37.617Z,4.80
2024-02-09T12:20:12.299Z,4.90
2024-02-09T12:22:44.064Z,5.00
2024-02-09T12:25:14.626Z,4.60
2024-02-09T12:27:43.763Z,4.95
2024-02-09T12:30:13.679Z,5.30
2024-02-09T12:32:47.357Z,4.38
2024-02-09T12:35:29.824Z,5.40
2024-02-09T12:38:02.547Z,6.32
2024-02-09T12:40:33.528Z,12.50
2024-02-09T12:43:04.470Z,6.30
2024-02-09T12:45:35.509Z,7.38
2024-02-09T12:48:04.227Z,6.33
2024-02-09T12:50:35.582Z,7.32
2024-02-09T12:53:05.326Z,5.85
2024-02-09T12:55:34.217Z,7.93
2024-02-09T12:58:06.421Z,12.10
2024-02-09T13:00:35.316Z,6.20
2024-02-09T13:03:03.797Z,8.15
2024-02-09T13:05:34.458Z,7.90
2024-02-09T13:08:02.726Z,7.90
2024-02-09T13:10:33.329Z,4.93
2024-02-09T13:13:07.239Z,4.85
2024-02-09T13:15:39.545Z,5.00
2024-02-09T13:18:11.693Z,4.53
2024-02-09T13:20:44.359Z,4.47
2024-02-09T13:23:15.245Z,4.38
2024-02-09T13:25:43.711Z,4.40
2024-02-09T13:28:14.735Z,4.53
2024-02-09T13:30:42.974Z,4.53
2024-02-09T13:33:12.048Z,4.72
2024-02-09T13:35:42.607Z,4.10
2024-02-09T13:38:11.180Z,3.92
2024-02-09T13:40:40.861Z,4.63
2024-02-09T13:43:10.826Z,4.50
2024-02-09T13:45:40.436Z,3.88
2024-02-09T13:48:11.389Z,4.47
2024-02-09T13:50:41.747Z,4.25
2024-02-09T13:53:10.563Z,4.28
2024-02-09T13:55:40.211Z,4.32
2024-02-09T13:58:09.151Z,5.15
2024-02-09T14:00:37.422Z,4.28
2024-02-09T14:03:06.559Z,18.45
2024-02-09T14:05:35.086Z,20.85
2024-02-09T14:08:06.050Z,5.32
2024-02-09T14:10:36.276Z,5.70
2024-02-09T14:13:05.797Z,5.60
2024-02-09T14:15:35.343Z,4.40
2024-02-09T14:18:04.588Z,4.40
2024-02-09T14:20:34.006Z,5.05
2024-02-09T14:23:04.519Z,6.18
2024-02-09T14:25:35.035Z,4.53
2024-02-09T14:28:04.594Z,5.50
2024-02-09T14:30:33.082Z,5.22
2024-02-09T14:33:03.530Z,6.30
2024-02-09T14:35:34.285Z,8.45
2024-02-09T14:38:03.455Z,5.63
2024-02-09T14:40:35.635Z,6.07
2024-02-09T14:43:07.276Z,6.65
2024-02-09T14:45:35.803Z,7.32
2024-02-09T14:48:09.837Z,5.20
2024-02-09T14:50:40.285Z,5.07
2024-02-09T14:53:09.495Z,5.75
2024-02-09T14:55:41.290Z,4.88
2024-02-09T14:58:11.784Z,5.40
2024-02-09T15:00:41.625Z,5.18
2024-02-09T15:03:12.978Z,4.93
2024-02-09T15:05:43.846Z,4.82
2024-02-09T15:08:15.087Z,4.70
2024-02-09T15:10:45.414Z,4.95
2024-02-09T15:13:16.869Z,5.07
2024-02-09T15:15:48.453Z,5.10
2024-02-09T15:18:19.372Z,5.28
2024-02-09T15:20:49.488Z,4.90
2024-02-09T15:23:21.626Z,5.18
2024-02-09T15:25:52.125Z,5.38
2024-02-09T15:28:27.184Z,5.47
2024-02-09T15:30:57.355Z,5.70
2024-02-09T15:33:27.732Z,5.53
2024-02-09T15:36:00.229Z,5.28
2024-02-09T15:41:01.464Z,5.68
2024-02-09T15:43:31.863Z,5.38
2024-02-09T15:46:02.729Z,6.00
2024-02-09T15:48:32.049Z,4.93
2024-02-09T15:51:04.424Z,5.70
2024-02-09T15:53:35.226Z,6.20
2024-02-09T15:56:06.513Z,6.40
2024-02-09T15:58:36.319Z,6.85
2024-02-09T16:01:07.053Z,6.72
2024-02-09T16:03:37.555Z,8.23
2024-02-09T16:06:09.512Z,8.90
2024-02-09T16:08:42.251Z,10.18
2024-02-09T16:11:14.570Z,12.23
2024-02-09T16:13:44.467Z,11.65
2024-02-09T16:16:13.040Z,9.65
2024-02-09T16:18:44.687Z,16.15
2024-02-09T16:21:15.878Z,12.82
2024-02-09T16:23:49.220Z,8.20
2024-02-09T16:26:20.643Z,26.48
2024-02-09T16:28:49.402Z,10.27
2024-02-09T16:31:25.029Z,6.75
2024-02-09T16:33:58.154Z,6.18
2024-02-09T16:36:32.833Z,6.10
2024-02-09T16:39:06.972Z,6.18
2024-02-09T16:41:40.278Z,6.97
2024-02-09T16:44:12.437Z,6.53
2024-02-09T16:46:42.631Z,6.10
2024-02-09T16:49:11.809Z,5.70
2024-02-09T16:51:44.747Z,6.28
2024-02-09T16:54:15.436Z,6.10
2024-02-09T16:56:47.086Z,5.70
2024-02-09T16:59:17.855Z,6.30
2024-02-09T17:01:49.878Z,7.38
2024-02-09T17:04:18.164Z,9.60
2024-02-09T17:06:50.172Z,8.48
2024-02-09T17:09:23.176Z,8.35
2024-02-09T17:11:53.357Z,7.50
2024-02-09T17:14:25.048Z,6.90
2024-02-09T17:17:00.760Z,10.35
2024-02-09T17:19:31.808Z,7.18
2024-02-09T17:22:02.940Z,7.13
2024-02-09T17:24:35.653Z,7.32
2024-02-09T17:27:08.703Z,6.68
2024-02-09T17:29:40.056Z,7.07
2024-02-09T17:32:09.540Z,7.20
2024-02-09T17:34:39.283Z,6.53
2024-02-09T17:37:08.820Z,6.78
2024-02-09T17:39:38.841Z,7.30
2024-02-09T17:42:10.168Z,7.20
2024-02-09T17:44:42.388Z,7.28
2024-02-09T17:47:12.182Z,7.28
2024-02-09T17:49:42.636Z,7.00
2024-02-09T17:52:13.985Z,7.13
2024-02-09T17:54:44.728Z,6.90
2024-02-09T17:57:16.250Z,7.37
2024-02-09T17:59:50.051Z,7.05
2024-02-09T18:02:24.596Z,6.68
2024-02-09T18:04:53.147Z,7.05
2024-02-09T18:07:25.300Z,8.25
2024-02-09T18:09:55.233Z,8.82
2024-02-09T18:12:27.622Z,11.05
2024-02-09T18:14:59.546Z,9.60
2024-02-09T18:17:30.867Z,8.98
2024-02-09T18:20:03.212Z,10.18
2024-02-09T18:22:33.325Z,8.88
2024-02-09T18:25:04.440Z,9.10
2024-02-09T18:27:36.638Z,12.07
2024-02-09T18:30:06.269Z,11.60
2024-02-09T18:32:38.076Z,12.82
2024-02-09T18:38:17.529Z,10.27
2024-02-09T18:40:54.957Z,8.60
2024-02-09T18:43:56.227Z,7.85
2024-02-09T18:54:15.979Z,8.07
2024-02-09T18:57:30.348Z,9.05
2024-02-09T19:04:14.284Z,6.68
2024-02-09T19:07:08.910Z,6.75
2024-02-09T19:10:05.697Z,6.85
2024-02-09T19:13:08.149Z,7.20
2024-02-09T19:16:10.662Z,7.90
2024-02-09T19:21:48.273Z,7.72
2024-02-09T19:24:26.407Z,7.63
2024-02-09T19:27:06.501Z,8.45
2024-02-09T19:29:55.069Z,9.25
2024-02-09T19:33:36.539Z,9.00
2024-02-09T19:36:42.207Z,7.88
2024-02-09T19:39:52.254Z,7.25
2024-02-09T19:49:32.822Z,7.70
2024-02-09T19:52:40.701Z,7.75
2024-02-09T19:55:12.604Z,7.70
2024-02-09T19:57:45.265Z,9.27
2024-02-09T20:00:15.698Z,12.82
2024-02-09T20:02:48.290Z,10.32
2024-02-09T20:05:23.369Z,8.00
2024-02-09T20:07:53.832Z,8.52
2024-02-09T20:10:23.142Z,8.32
2024-02-09T20:12:54.150Z,7.25
2024-02-09T20:15:29.023Z,7.90
2024-02-09T20:18:00.573Z,7.47
2024-02-09T20:20:29.862Z,7.63
2024-02-09T20:23:02.164Z,7.80
2024-02-09T20:25:32.546Z,7.15
2024-02-09T20:28:03.962Z,7.10
2024-02-09T20:30:33.846Z,7.10
2024-02-09T20:33:07.886Z,7.07
2024-02-09T20:35:41.510Z,7.63
2024-02-09T20:38:12.287Z,6.95
2024-02-09T20:40:41.791Z,6.90
2024-02-09T20:43:10.462Z,6.70
2024-02-09T20:45:39.593Z,6.60
2024-02-09T20:48:10.030Z,6.75
2024-02-09T20:50:41.960Z,7.47
2024-02-09T20:53:17.832Z,7.00
2024-02-09T20:55:50.082Z,6.90
2024-02-09T20:58:33.513Z,6.68
2024-02-09T21:01:05.711Z,6.95
2024-02-09T21:03:34.449Z,7.35
2024-02-09T21:06:06.865Z,7.50
2024-02-09T21:08:39.175Z,7.72
2024-02-09T21:11:08.535Z,7.18
2024-02-09T21:13:38.334Z,7.20
2024-02-09T21:16:08.324Z,7.35
2024-02-09T21:18:39.265Z,7.10
2024-02-09T21:21:09.423Z,7.57
2024-02-09T21:23:40.669Z,7.57
2024-02-09T21:26:10.021Z,7.80
2024-02-09T21:28:40.561Z,7.88
2024-02-09T21:31:09.191Z,7.57
2024-02-09T21:33:39.605Z,7.35
2024-02-09T21:36:08.514Z,8.13
2024-02-09T21:38:36.880Z,7.40
2024-02-09T21:41:08.357Z,8.20
2024-02-09T21:43:37.898Z,7.25
2024-02-09T21:46:06.379Z,7.80
2024-02-09T21:48:40.204Z,7.68
2024-02-09T21:51:11.120Z,7.57
2024-02-09T21:53:39.661Z,7.45
2024-02-09T21:56:10.432Z,6.90
2024-02-09T21:58:44.038Z,6.93
2024-02-09T22:01:15.069Z,7.32
2024-02-09T22:06:20.007Z,8.45
2024-02-09T22:08:49.401Z,7.22
2024-02-09T22:11:21.905Z,7.47
2024-02-09T22:13:53.764Z,7.85
2024-02-09T22:16:22.615Z,7.53
2024-02-09T22:18:53.181Z,8.18
2024-02-09T22:21:22.015Z,7.93
2024-02-09T22:23:50.252Z,8.70
2024-02-09T22:26:24.503Z,8.07
2024-02-09T22:28:58.053Z,8.20
2024-02-09T22:31:30.487Z,7.90
2024-02-09T22:33:59.202Z,8.10
2024-02-09T22:36:30.282Z,9.15
2024-02-09T22:39:02.860Z,9.43
2024-02-09T22:41:36.245Z,8.00
2024-02-09T22:44:06.617Z,8.25
2024-02-09T22:46:37.568Z,8.10
2024-02-09T22:49:09.421Z,8.98
2024-02-09T22:54:12.204Z,8.15
2024-02-09T22:56:42.646Z,8.13
2024-02-09T22:59:11.827Z,8.07
2024-02-09T23:01:44.905Z,8.27
2024-02-09T23:04:22.394Z,8.02
2024-02-09T23:06:56.952Z,8.90
2024-02-09T23:09:26.540Z,8.68
2024-02-09T23:11:57.462Z,8.95
2024-02-09T23:14:27.885Z,8.43
2024-02-09T23:17:03.173Z,9.20
2024-02-09T23:19:32.223Z,9.15
2024-02-09T23:22:03.146Z,8.85
2024-02-09T23:24:39.347Z,8.13
2024-02-09T23:27:09.402Z,8.77
2024-02-09T23:29:41.757Z,8.55
2024-02-09T23:32:11.935Z,9.40
2024-02-09T23:34:43.191Z,8.52
2024-02-09T23:37:16.768Z,9.05
2024-02-09T23:39:47.614Z,9.00
2024-02-09T23:42:19.717Z,9.00
2024-02-09T23:44:51.978Z,8.98
2024-02-09T23:47:26.071Z,9.00
2024-02-09T23:49:56.897Z,8.90
2024-02-09T23:52:28.157Z,8.93
2024-02-09T23:54:58.604Z,9.00
2024-02-09T23:57:30.341Z,9.15
